sensor_id;sensor_type;location;lat;lon;timestamp;P1;durP1;ratioP1;P2;durP2;ratioP2
20734;SDS011;10528;52.124;5.196;2023-04-30T00:00:43;9.90;;;6.53;;
20734;SDS011;10528;52.124;5.196;2023-04-30T00:03:10;12.00;;;7.10;;
20734;SDS011;10528;52.124;5.196;2023-04-30T00:05:37;13.88;;;7.18;;
20734;SDS011;10528;52.124;5.196;2023-04-30T00:08:04;10.98;;;7.30;;
20734;SDS011;10528;52.124;5.196;2023-04-30T00:10:31;11.00;;;6.43;;
20734;SDS011;10528;52.124;5.196;2023-04-30T00:12:58;11.45;;;5.93;;
20734;SDS011;10528;52.124;5.196;2023-04-30T00:15:25;12.07;;;6.13;;
20734;SDS011;10528;52.124;5.196;2023-04-30T00:17:52;7.32;;;5.93;;
20734;SDS011;10528;52.124;5.196;2023-04-30T00:20:18;9.40;;;6.22;;
20734;SDS011;10528;52.124;5.196;2023-04-30T00:22:45;9.60;;;5.53;;
20734;SDS011;10528;52.124;5.196;2023-04-30T00:25:12;9.38;;;6.32;;
20734;SDS011;10528;52.124;5.196;2023-04-30T00:27:39;9.65;;;6.15;;
20734;SDS011;10528;52.124;5.196;2023-04-30T00:30:06;9.77;;;5.95;;
20734;SDS011;10528;52.124;5.196;2023-04-30T00:32:34;9.43;;;5.82;;
20734;SDS011;10528;52.124;5.196;2023-04-30T00:35:00;10.15;;;6.22;;
20734;SDS011;10528;52.124;5.196;2023-04-30T00:37:28;9.52;;;6.53;;
20734;SDS011;10528;52.124;5.196;2023-04-30T00:39:55;9.45;;;6.25;;
20734;SDS011;10528;52.124;5.196;2023-04-30T00:42:22;10.23;;;6.03;;
20734;SDS011;10528;52.124;5.196;2023-04-30T00:44:49;11.10;;;6.82;;
20734;SDS011;10528;52.124;5.196;2023-04-30T00:47:16;11.02;;;6.90;;
20734;SDS011;10528;52.124;5.196;2023-04-30T00:49:43;11.57;;;7.20;;
20734;SDS011;10528;52.124;5.196;2023-04-30T00:52:10;12.80;;;6.70;;
20734;SDS011;10528;52.124;5.196;2023-04-30T00:54:38;11.00;;;6.75;;
20734;SDS011;10528;52.124;5.196;2023-04-30T00:57:06;8.98;;;6.25;;
20734;SDS011;10528;52.124;5.196;2023-04-30T00:59:37;11.65;;;6.38;;
20734;SDS011;10528;52.124;5.196;2023-04-30T01:02:04;10.10;;;6.53;;
20734;SDS011;10528;52.124;5.196;2023-04-30T01:04:33;8.63;;;6.15;;
20734;SDS011;10528;52.124;5.196;2023-04-30T01:07:01;10.55;;;6.60;;
20734;SDS011;10528;52.124;5.196;2023-04-30T01:09:28;9.18;;;6.18;;
20734;SDS011;10528;52.124;5.196;2023-04-30T01:12:09;10.80;;;5.82;;
20734;SDS011;10528;52.124;5.196;2023-04-30T01:20:05;10.52;;;6.35;;
20734;SDS011;10528;52.124;5.196;2023-04-30T01:22:35;10.02;;;6.07;;
20734;SDS011;10528;52.124;5.196;2023-04-30T01:28:15;10.52;;;6.28;;
20734;SDS011;10528;52.124;5.196;2023-04-30T01:30:46;8.40;;;6.50;;
20734;SDS011;10528;52.124;5.196;2023-04-30T01:33:14;10.88;;;6.68;;
20734;SDS011;10528;52.124;5.196;2023-04-30T01:39:00;8.90;;;6.35;;
20734;SDS011;10528;52.124;5.196;2023-04-30T01:41:56;11.20;;;6.25;;
20734;SDS011;10528;52.124;5.196;2023-04-30T01:44:50;8.93;;;6.78;;
20734;SDS011;10528;52.124;5.196;2023-04-30T01:48:12;12.15;;;7.28;;
20734;SDS011;10528;52.124;5.196;2023-04-30T01:51:07;11.15;;;7.30;;
20734;SDS011;10528;52.124;5.196;2023-04-30T01:53:47;11.93;;;7.10;;
20734;SDS011;10528;52.124;5.196;2023-04-30T01:56:20;11.15;;;7.50;;
20734;SDS011;10528;52.124;5.196;2023-04-30T01:58:56;8.80;;;6.70;;
20734;SDS011;10528;52.124;5.196;2023-04-30T02:01:33;10.52;;;7.32;;
20734;SDS011;10528;52.124;5.196;2023-04-30T02:04:02;11.18;;;7.90;;
20734;SDS011;10528;52.124;5.196;2023-04-30T02:06:29;13.50;;;8.70;;
20734;SDS011;10528;52.124;5.196;2023-04-30T02:08:57;14.05;;;9.18;;
20734;SDS011;10528;52.124;5.196;2023-04-30T02:11:28;14.60;;;8.73;;
20734;SDS011;10528;52.124;5.196;2023-04-30T02:13:55;15.15;;;9.10;;
20734;SDS011;10528;52.124;5.196;2023-04-30T02:16:23;17.35;;;8.82;;
20734;SDS011;10528;52.124;5.196;2023-04-30T02:18:50;13.93;;;8.93;;
20734;SDS011;10528;52.124;5.196;2023-04-30T02:21:17;12.68;;;8.77;;
20734;SDS011;10528;52.124;5.196;2023-04-30T02:23:45;16.05;;;9.57;;
20734;SDS011;10528;52.124;5.196;2023-04-30T02:26:12;11.52;;;8.25;;
20734;SDS011;10528;52.124;5.196;2023-04-30T02:28:39;12.85;;;8.82;;
20734;SDS011;10528;52.124;5.196;2023-04-30T02:31:07;14.50;;;8.30;;
20734;SDS011;10528;52.124;5.196;2023-04-30T02:33:35;13.75;;;7.97;;
20734;SDS011;10528;52.124;5.196;2023-04-30T02:36:02;13.60;;;8.30;;
20734;SDS011;10528;52.124;5.196;2023-04-30T02:38:30;13.35;;;8.75;;
20734;SDS011;10528;52.124;5.196;2023-04-30T02:40:57;11.57;;;8.63;;
20734;SDS011;10528;52.124;5.196;2023-04-30T02:43:24;13.25;;;8.30;;
20734;SDS011;10528;52.124;5.196;2023-04-30T02:45:51;12.23;;;8.77;;
20734;SDS011;10528;52.124;5.196;2023-04-30T02:48:18;13.18;;;8.55;;
20734;SDS011;10528;52.124;5.196;2023-04-30T02:50:44;14.63;;;8.90;;
20734;SDS011;10528;52.124;5.196;2023-04-30T02:53:11;13.27;;;8.68;;
20734;SDS011;10528;52.124;5.196;2023-04-30T02:55:38;13.05;;;8.30;;
20734;SDS011;10528;52.124;5.196;2023-04-30T02:58:05;12.20;;;8.13;;
20734;SDS011;10528;52.124;5.196;2023-04-30T03:00:32;13.43;;;8.90;;
20734;SDS011;10528;52.124;5.196;2023-04-30T03:02:59;15.30;;;8.63;;
20734;SDS011;10528;52.124;5.196;2023-04-30T03:05:26;13.80;;;9.18;;
20734;SDS011;10528;52.124;5.196;2023-04-30T03:07:53;14.65;;;8.90;;
20734;SDS011;10528;52.124;5.196;2023-04-30T03:10:22;14.10;;;8.77;;
20734;SDS011;10528;52.124;5.196;2023-04-30T03:12:49;13.52;;;8.30;;
20734;SDS011;10528;52.124;5.196;2023-04-30T03:15:16;15.10;;;9.43;;
20734;SDS011;10528;52.124;5.196;2023-04-30T03:17:43;13.30;;;8.95;;
20734;SDS011;10528;52.124;5.196;2023-04-30T03:20:11;13.80;;;8.73;;
20734;SDS011;10528;52.124;5.196;2023-04-30T03:22:39;13.23;;;8.98;;
20734;SDS011;10528;52.124;5.196;2023-04-30T03:25:08;11.35;;;8.38;;
20734;SDS011;10528;52.124;5.196;2023-04-30T03:27:35;11.43;;;8.55;;
20734;SDS011;10528;52.124;5.196;2023-04-30T03:30:02;13.35;;;9.10;;
20734;SDS011;10528;52.124;5.196;2023-04-30T03:32:30;14.40;;;8.52;;
20734;SDS011;10528;52.124;5.196;2023-04-30T03:34:57;12.43;;;8.30;;
20734;SDS011;10528;52.124;5.196;2023-04-30T03:37:25;12.35;;;8.50;;
20734;SDS011;10528;52.124;5.196;2023-04-30T03:39:52;10.48;;;8.10;;
20734;SDS011;10528;52.124;5.196;2023-04-30T03:42:19;13.93;;;8.32;;
20734;SDS011;10528;52.124;5.196;2023-04-30T03:44:46;14.88;;;9.13;;
20734;SDS011;10528;52.124;5.196;2023-04-30T03:47:13;12.57;;;8.10;;
20734;SDS011;10528;52.124;5.196;2023-04-30T03:49:40;13.48;;;8.15;;
20734;SDS011;10528;52.124;5.196;2023-04-30T03:52:07;12.73;;;8.55;;
20734;SDS011;10528;52.124;5.196;2023-04-30T03:54:33;10.45;;;7.50;;
20734;SDS011;10528;52.124;5.196;2023-04-30T03:57:00;11.05;;;7.15;;
20734;SDS011;10528;52.124;5.196;2023-04-30T03:59:30;13.82;;;7.95;;
20734;SDS011;10528;52.124;5.196;2023-04-30T04:01:59;10.85;;;7.43;;
20734;SDS011;10528;52.124;5.196;2023-04-30T04:04:26;12.38;;;7.95;;
20734;SDS011;10528;52.124;5.196;2023-04-30T04:06:55;13.20;;;8.18;;
20734;SDS011;10528;52.124;5.196;2023-04-30T04:09:22;11.50;;;8.07;;
20734;SDS011;10528;52.124;5.196;2023-04-30T04:11:48;11.30;;;7.50;;
20734;SDS011;10528;52.124;5.196;2023-04-30T04:14:15;12.77;;;7.53;;
20734;SDS011;10528;52.124;5.196;2023-04-30T04:16:42;13.32;;;7.93;;
20734;SDS011;10528;52.124;5.196;2023-04-30T04:19:09;10.10;;;7.57;;
20734;SDS011;10528;52.124;5.196;2023-04-30T04:21:38;10.88;;;7.35;;
20734;SDS011;10528;52.124;5.196;2023-04-30T04:24:11;13.07;;;8.23;;
20734;SDS011;10528;52.124;5.196;2023-04-30T04:26:38;10.65;;;7.60;;
20734;SDS011;10528;52.124;5.196;2023-04-30T04:29:07;10.77;;;7.63;;
20734;SDS011;10528;52.124;5.196;2023-04-30T04:31:35;10.95;;;7.88;;
20734;SDS011;10528;52.124;5.196;2023-04-30T04:34:04;11.88;;;7.60;;
20734;SDS011;10528;52.124;5.196;2023-04-30T04:36:31;9.73;;;7.07;;
20734;SDS011;10528;52.124;5.196;2023-04-30T04:38:59;14.38;;;7.88;;
20734;SDS011;10528;52.124;5.196;2023-04-30T04:41:30;11.35;;;7.43;;
20734;SDS011;10528;52.124;5.196;2023-04-30T04:43:59;10.68;;;7.95;;
20734;SDS011;10528;52.124;5.196;2023-04-30T04:46:27;12.93;;;6.93;;
20734;SDS011;10528;52.124;5.196;2023-04-30T04:48:57;11.27;;;7.43;;
20734;SDS011;10528;52.124;5.196;2023-04-30T04:51:24;12.75;;;7.70;;
20734;SDS011;10528;52.124;5.196;2023-04-30T04:53:52;10.82;;;7.07;;
20734;SDS011;10528;52.124;5.196;2023-04-30T04:56:19;15.07;;;8.00;;
20734;SDS011;10528;52.124;5.196;2023-04-30T04:58:46;10.43;;;7.07;;
20734;SDS011;10528;52.124;5.196;2023-04-30T05:01:13;11.00;;;7.00;;
20734;SDS011;10528;52.124;5.196;2023-04-30T05:03:40;10.25;;;7.40;;
20734;SDS011;10528;52.124;5.196;2023-04-30T05:06:07;9.80;;;6.90;;
20734;SDS011;10528;52.124;5.196;2023-04-30T05:08:34;14.25;;;7.55;;
20734;SDS011;10528;52.124;5.196;2023-04-30T05:11:01;11.55;;;7.47;;
20734;SDS011;10528;52.124;5.196;2023-04-30T05:13:28;10.38;;;7.38;;
20734;SDS011;10528;52.124;5.196;2023-04-30T05:15:55;11.85;;;7.45;;
20734;SDS011;10528;52.124;5.196;2023-04-30T05:18:22;12.95;;;7.68;;
20734;SDS011;10528;52.124;5.196;2023-04-30T05:20:49;10.10;;;7.05;;
20734;SDS011;10528;52.124;5.196;2023-04-30T05:23:16;11.27;;;7.07;;
20734;SDS011;10528;52.124;5.196;2023-04-30T05:25:43;9.90;;;6.72;;
20734;SDS011;10528;52.124;5.196;2023-04-30T05:28:10;9.95;;;6.90;;
20734;SDS011;10528;52.124;5.196;2023-04-30T05:30:37;10.63;;;6.80;;
20734;SDS011;10528;52.124;5.196;2023-04-30T05:33:04;11.57;;;7.25;;
20734;SDS011;10528;52.124;5.196;2023-04-30T05:35:31;12.52;;;7.40;;
20734;SDS011;10528;52.124;5.196;2023-04-30T05:38:01;10.98;;;6.95;;
20734;SDS011;10528;52.124;5.196;2023-04-30T05:40:29;14.45;;;8.07;;
20734;SDS011;10528;52.124;5.196;2023-04-30T05:42:57;12.90;;;7.70;;
20734;SDS011;10528;52.124;5.196;2023-04-30T05:45:24;9.77;;;6.40;;
20734;SDS011;10528;52.124;5.196;2023-04-30T05:47:51;11.02;;;7.05;;
20734;SDS011;10528;52.124;5.196;2023-04-30T05:50:18;11.50;;;6.97;;
20734;SDS011;10528;52.124;5.196;2023-04-30T05:52:45;14.88;;;7.30;;
20734;SDS011;10528;52.124;5.196;2023-04-30T05:55:12;11.27;;;6.85;;
20734;SDS011;10528;52.124;5.196;2023-04-30T05:57:39;11.40;;;7.10;;
20734;SDS011;10528;52.124;5.196;2023-04-30T06:00:06;9.68;;;6.72;;
20734;SDS011;10528;52.124;5.196;2023-04-30T06:02:39;11.00;;;6.45;;
20734;SDS011;10528;52.124;5.196;2023-04-30T06:05:06;11.52;;;6.13;;
20734;SDS011;10528;52.124;5.196;2023-04-30T06:07:34;9.90;;;6.15;;
20734;SDS011;10528;52.124;5.196;2023-04-30T06:10:01;9.93;;;5.90;;
20734;SDS011;10528;52.124;5.196;2023-04-30T06:12:29;8.85;;;5.43;;
20734;SDS011;10528;52.124;5.196;2023-04-30T06:14:56;7.18;;;4.85;;
20734;SDS011;10528;52.124;5.196;2023-04-30T06:17:23;8.20;;;4.50;;
20734;SDS011;10528;52.124;5.196;2023-04-30T06:19:50;7.43;;;5.13;;
20734;SDS011;10528;52.124;5.196;2023-04-30T06:22:18;7.75;;;4.50;;
20734;SDS011;10528;52.124;5.196;2023-04-30T06:24:45;7.28;;;4.65;;
20734;SDS011;10528;52.124;5.196;2023-04-30T06:27:11;8.13;;;4.47;;
20734;SDS011;10528;52.124;5.196;2023-04-30T06:29:38;7.22;;;4.45;;
20734;SDS011;10528;52.124;5.196;2023-04-30T06:32:05;6.85;;;4.38;;
20734;SDS011;10528;52.124;5.196;2023-04-30T06:34:34;7.95;;;4.38;;
20734;SDS011;10528;52.124;5.196;2023-04-30T06:37:01;7.82;;;4.65;;
20734;SDS011;10528;52.124;5.196;2023-04-30T06:39:28;7.40;;;4.30;;
20734;SDS011;10528;52.124;5.196;2023-04-30T06:41:55;7.60;;;4.60;;
20734;SDS011;10528;52.124;5.196;2023-04-30T06:44:22;7.60;;;4.80;;
20734;SDS011;10528;52.124;5.196;2023-04-30T06:46:50;6.43;;;4.20;;
20734;SDS011;10528;52.124;5.196;2023-04-30T06:49:17;6.90;;;3.88;;
20734;SDS011;10528;52.124;5.196;2023-04-30T06:51:44;6.88;;;4.38;;
20734;SDS011;10528;52.124;5.196;2023-04-30T06:54:10;7.60;;;4.65;;
20734;SDS011;10528;52.124;5.196;2023-04-30T06:56:37;7.35;;;4.47;;
20734;SDS011;10528;52.124;5.196;2023-04-30T06:59:04;5.75;;;4.10;;
20734;SDS011;10528;52.124;5.196;2023-04-30T07:01:31;7.32;;;4.35;;
20734;SDS011;10528;52.124;5.196;2023-04-30T07:03:58;8.65;;;4.47;;
20734;SDS011;10528;52.124;5.196;2023-04-30T07:06:26;8.55;;;4.40;;
20734;SDS011;10528;52.124;5.196;2023-04-30T07:08:53;7.30;;;4.78;;
20734;SDS011;10528;52.124;5.196;2023-04-30T07:11:20;8.18;;;4.78;;
20734;SDS011;10528;52.124;5.196;2023-04-30T07:13:47;7.40;;;5.15;;
20734;SDS011;10528;52.124;5.196;2023-04-30T07:16:14;7.35;;;4.82;;
20734;SDS011;10528;52.124;5.196;2023-04-30T07:18:42;6.25;;;4.03;;
20734;SDS011;10528;52.124;5.196;2023-04-30T07:21:09;9.27;;;4.47;;
20734;SDS011;10528;52.124;5.196;2023-04-30T07:23:36;9.82;;;5.60;;
20734;SDS011;10528;52.124;5.196;2023-04-30T07:26:02;10.73;;;4.40;;
20734;SDS011;10528;52.124;5.196;2023-04-30T07:28:29;9.15;;;4.63;;
20734;SDS011;10528;52.124;5.196;2023-04-30T07:30:56;6.47;;;4.45;;
20734;SDS011;10528;52.124;5.196;2023-04-30T07:33:23;6.05;;;4.40;;
20734;SDS011;10528;52.124;5.196;2023-04-30T07:35:50;6.25;;;4.50;;
20734;SDS011;10528;52.124;5.196;2023-04-30T07:38:17;8.85;;;4.32;;
20734;SDS011;10528;52.124;5.196;2023-04-30T07:40:44;6.78;;;4.30;;
20734;SDS011;10528;52.124;5.196;2023-04-30T07:43:11;9.20;;;4.97;;
20734;SDS011;10528;52.124;5.196;2023-04-30T07:45:38;7.78;;;4.20;;
20734;SDS011;10528;52.124;5.196;2023-04-30T07:48:05;7.90;;;4.35;;
20734;SDS011;10528;52.124;5.196;2023-04-30T07:50:32;6.97;;;4.22;;
20734;SDS011;10528;52.124;5.196;2023-04-30T07:52:59;6.22;;;4.13;;
20734;SDS011;10528;52.124;5.196;2023-04-30T07:55:27;6.15;;;4.28;;
20734;SDS011;10528;52.124;5.196;2023-04-30T07:57:54;9.15;;;4.88;;
20734;SDS011;10528;52.124;5.196;2023-04-30T08:00:21;5.88;;;4.47;;
20734;SDS011;10528;52.124;5.196;2023-04-30T08:02:48;8.27;;;4.80;;
20734;SDS011;10528;52.124;5.196;2023-04-30T08:05:16;6.05;;;4.22;;
20734;SDS011;10528;52.124;5.196;2023-04-30T08:07:42;5.32;;;3.70;;
20734;SDS011;10528;52.124;5.196;2023-04-30T08:10:09;6.45;;;3.92;;
20734;SDS011;10528;52.124;5.196;2023-04-30T08:12:37;7.57;;;4.05;;
20734;SDS011;10528;52.124;5.196;2023-04-30T08:15:04;6.75;;;3.80;;
20734;SDS011;10528;52.124;5.196;2023-04-30T08:17:35;6.43;;;3.78;;
20734;SDS011;10528;52.124;5.196;2023-04-30T08:20:02;4.35;;;3.60;;
20734;SDS011;10528;52.124;5.196;2023-04-30T08:22:30;9.13;;;4.20;;
20734;SDS011;10528;52.124;5.196;2023-04-30T08:24:57;5.28;;;3.20;;
20734;SDS011;10528;52.124;5.196;2023-04-30T08:27:27;6.45;;;3.40;;
20734;SDS011;10528;52.124;5.196;2023-04-30T08:29:56;6.80;;;3.90;;
20734;SDS011;10528;52.124;5.196;2023-04-30T08:32:23;5.05;;;2.85;;
20734;SDS011;10528;52.124;5.196;2023-04-30T08:34:50;5.40;;;3.22;;
20734;SDS011;10528;52.124;5.196;2023-04-30T08:37:17;4.63;;;3.40;;
20734;SDS011;10528;52.124;5.196;2023-04-30T08:39:44;4.63;;;3.30;;
20734;SDS011;10528;52.124;5.196;2023-04-30T08:42:12;5.95;;;3.97;;
20734;SDS011;10528;52.124;5.196;2023-04-30T08:44:40;8.48;;;4.15;;
20734;SDS011;10528;52.124;5.196;2023-04-30T08:47:11;5.78;;;3.25;;
20734;SDS011;10528;52.124;5.196;2023-04-30T08:49:40;5.22;;;3.35;;
20734;SDS011;10528;52.124;5.196;2023-04-30T08:52:08;7.07;;;3.65;;
20734;SDS011;10528;52.124;5.196;2023-04-30T08:54:35;7.10;;;4.20;;
20734;SDS011;10528;52.124;5.196;2023-04-30T08:57:02;4.93;;;3.28;;
20734;SDS011;10528;52.124;5.196;2023-04-30T08:59:30;4.00;;;2.67;;
20734;SDS011;10528;52.124;5.196;2023-04-30T09:01:58;4.70;;;2.97;;
20734;SDS011;10528;52.124;5.196;2023-04-30T09:04:27;4.65;;;3.22;;
20734;SDS011;10528;52.124;5.196;2023-04-30T09:06:54;6.20;;;3.35;;
20734;SDS011;10528;52.124;5.196;2023-04-30T09:09:27;5.47;;;3.75;;
20734;SDS011;10528;52.124;5.196;2023-04-30T09:12:15;6.22;;;4.20;;
20734;SDS011;10528;52.124;5.196;2023-04-30T09:17:31;6.15;;;4.28;;
20734;SDS011;10528;52.124;5.196;2023-04-30T09:20:09;4.78;;;3.88;;
20734;SDS011;10528;52.124;5.196;2023-04-30T09:22:39;4.45;;;3.40;;
20734;SDS011;10528;52.124;5.196;2023-04-30T09:25:08;6.18;;;3.63;;
20734;SDS011;10528;52.124;5.196;2023-04-30T09:27:36;6.85;;;4.05;;
20734;SDS011;10528;52.124;5.196;2023-04-30T09:30:03;5.47;;;3.40;;
20734;SDS011;10528;52.124;5.196;2023-04-30T09:32:30;4.88;;;3.40;;
20734;SDS011;10528;52.124;5.196;2023-04-30T09:34:57;6.60;;;3.58;;
20734;SDS011;10528;52.124;5.196;2023-04-30T09:37:34;5.18;;;3.40;;
20734;SDS011;10528;52.124;5.196;2023-04-30T09:40:04;4.80;;;3.03;;
20734;SDS011;10528;52.124;5.196;2023-04-30T09:42:32;4.32;;;3.22;;
20734;SDS011;10528;52.124;5.196;2023-04-30T09:44:59;5.28;;;3.20;;
20734;SDS011;10528;52.124;5.196;2023-04-30T09:47:28;7.22;;;3.78;;
20734;SDS011;10528;52.124;5.196;2023-04-30T09:49:57;5.05;;;3.72;;
20734;SDS011;10528;52.124;5.196;2023-04-30T09:52:25;6.50;;;3.58;;
20734;SDS011;10528;52.124;5.196;2023-04-30T09:54:52;6.47;;;3.72;;
20734;SDS011;10528;52.124;5.196;2023-04-30T09:57:20;4.63;;;3.40;;
20734;SDS011;10528;52.124;5.196;2023-04-30T09:59:49;5.35;;;3.00;;
20734;SDS011;10528;52.124;5.196;2023-04-30T10:02:18;4.75;;;2.92;;
20734;SDS011;10528;52.124;5.196;2023-04-30T10:04:52;5.07;;;2.90;;
20734;SDS011;10528;52.124;5.196;2023-04-30T10:07:23;5.43;;;3.40;;
20734;SDS011;10528;52.124;5.196;2023-04-30T10:10:02;5.25;;;3.22;;
20734;SDS011;10528;52.124;5.196;2023-04-30T10:12:47;4.47;;;3.25;;
20734;SDS011;10528;52.124;5.196;2023-04-30T10:15:19;4.55;;;2.90;;
20734;SDS011;10528;52.124;5.196;2023-04-30T10:17:53;5.53;;;3.40;;
20734;SDS011;10528;52.124;5.196;2023-04-30T10:20:30;4.50;;;3.25;;
20734;SDS011;10528;52.124;5.196;2023-04-30T10:23:02;6.07;;;2.70;;
20734;SDS011;10528;52.124;5.196;2023-04-30T10:25:30;4.53;;;3.08;;
20734;SDS011;10528;52.124;5.196;2023-04-30T10:27:59;6.18;;;2.83;;
20734;SDS011;10528;52.124;5.196;2023-04-30T10:30:30;4.75;;;3.00;;
20734;SDS011;10528;52.124;5.196;2023-04-30T10:35:58;4.80;;;3.17;;
20734;SDS011;10528;52.124;5.196;2023-04-30T10:38:29;4.45;;;2.95;;
20734;SDS011;10528;52.124;5.196;2023-04-30T10:40:59;8.80;;;3.10;;
20734;SDS011;10528;52.124;5.196;2023-04-30T10:43:29;4.78;;;2.63;;
20734;SDS011;10528;52.124;5.196;2023-04-30T10:45:56;5.72;;;2.95;;
20734;SDS011;10528;52.124;5.196;2023-04-30T10:48:24;4.93;;;2.72;;
20734;SDS011;10528;52.124;5.196;2023-04-30T10:50:55;4.70;;;2.65;;
20734;SDS011;10528;52.124;5.196;2023-04-30T10:53:24;4.70;;;2.90;;
20734;SDS011;10528;52.124;5.196;2023-04-30T10:56:00;4.82;;;2.75;;
20734;SDS011;10528;52.124;5.196;2023-04-30T10:58:33;5.75;;;3.10;;
20734;SDS011;10528;52.124;5.196;2023-04-30T11:03:41;3.85;;;2.50;;
20734;SDS011;10528;52.124;5.196;2023-04-30T11:09:35;5.95;;;3.03;;
20734;SDS011;10528;52.124;5.196;2023-04-30T11:12:09;5.55;;;2.70;;
20734;SDS011;10528;52.124;5.196;2023-04-30T11:14:44;5.28;;;2.63;;
20734;SDS011;10528;52.124;5.196;2023-04-30T11:17:20;3.75;;;2.50;;
20734;SDS011;10528;52.124;5.196;2023-04-30T11:19:49;3.55;;;2.75;;
20734;SDS011;10528;52.124;5.196;2023-04-30T11:22:22;3.55;;;2.40;;
20734;SDS011;10528;52.124;5.196;2023-04-30T11:24:50;14.18;;;2.45;;
20734;SDS011;10528;52.124;5.196;2023-04-30T11:27:30;3.78;;;2.60;;
20734;SDS011;10528;52.124;5.196;2023-04-30T11:30:00;5.28;;;2.47;;
20734;SDS011;10528;52.124;5.196;2023-04-30T11:32:36;2.53;;;1.88;;
20734;SDS011;10528;52.124;5.196;2023-04-30T11:35:04;4.13;;;2.47;;
20734;SDS011;10528;52.124;5.196;2023-04-30T11:37:33;3.50;;;2.08;;
20734;SDS011;10528;52.124;5.196;2023-04-30T11:40:01;5.07;;;2.40;;
20734;SDS011;10528;52.124;5.196;2023-04-30T11:42:31;5.00;;;2.75;;
20734;SDS011;10528;52.124;5.196;2023-04-30T11:47:49;3.45;;;2.28;;
20734;SDS011;10528;52.124;5.196;2023-04-30T11:50:21;3.10;;;2.00;;
20734;SDS011;10528;52.124;5.196;2023-04-30T11:52:56;3.88;;;2.10;;
20734;SDS011;10528;52.124;5.196;2023-04-30T11:55:26;3.53;;;2.03;;
20734;SDS011;10528;52.124;5.196;2023-04-30T11:57:54;4.75;;;2.22;;
20734;SDS011;10528;52.124;5.196;2023-04-30T12:00:25;3.38;;;1.98;;
20734;SDS011;10528;52.124;5.196;2023-04-30T12:02:55;4.50;;;2.45;;
20734;SDS011;10528;52.124;5.196;2023-04-30T12:05:26;4.70;;;2.05;;
20734;SDS011;10528;52.124;5.196;2023-04-30T12:07:54;3.67;;;2.40;;
20734;SDS011;10528;52.124;5.196;2023-04-30T12:10:34;3.70;;;1.75;;
20734;SDS011;10528;52.124;5.196;2023-04-30T12:13:01;4.68;;;2.38;;
20734;SDS011;10528;52.124;5.196;2023-04-30T12:15:28;2.47;;;1.75;;
20734;SDS011;10528;52.124;5.196;2023-04-30T12:17:56;3.17;;;1.85;;
20734;SDS011;10528;52.124;5.196;2023-04-30T12:20:26;2.30;;;1.40;;
20734;SDS011;10528;52.124;5.196;2023-04-30T12:22:56;2.22;;;1.45;;
20734;SDS011;10528;52.124;5.196;2023-04-30T12:25:24;2.40;;;1.50;;
20734;SDS011;10528;52.124;5.196;2023-04-30T12:27:54;3.08;;;1.60;;
20734;SDS011;10528;52.124;5.196;2023-04-30T12:30:24;3.63;;;1.50;;
20734;SDS011;10528;52.124;5.196;2023-04-30T12:32:55;3.53;;;1.27;;
20734;SDS011;10528;52.124;5.196;2023-04-30T12:35:26;2.40;;;1.23;;
20734;SDS011;10528;52.124;5.196;2023-04-30T12:38:02;2.35;;;1.60;;
20734;SDS011;10528;52.124;5.196;2023-04-30T12:40:32;4.65;;;1.20;;
20734;SDS011;10528;52.124;5.196;2023-04-30T12:43:06;1.90;;;1.25;;
20734;SDS011;10528;52.124;5.196;2023-04-30T12:45:44;2.58;;;1.70;;
20734;SDS011;10528;52.124;5.196;2023-04-30T12:48:19;2.35;;;1.45;;
20734;SDS011;10528;52.124;5.196;2023-04-30T12:50:52;2.55;;;1.45;;
20734;SDS011;10528;52.124;5.196;2023-04-30T12:53:25;1.77;;;1.20;;
20734;SDS011;10528;52.124;5.196;2023-04-30T12:56:05;2.95;;;1.52;;
20734;SDS011;10528;52.124;5.196;2023-04-30T12:58:35;2.13;;;0.90;;
20734;SDS011;10528;52.124;5.196;2023-04-30T13:01:04;2.05;;;1.15;;
20734;SDS011;10528;52.124;5.196;2023-04-30T13:03:35;1.77;;;1.05;;
20734;SDS011;10528;52.124;5.196;2023-04-30T13:06:02;1.63;;;1.00;;
20734;SDS011;10528;52.124;5.196;2023-04-30T13:08:30;1.95;;;1.17;;
20734;SDS011;10528;52.124;5.196;2023-04-30T13:11:02;4.78;;;1.00;;
20734;SDS011;10528;52.124;5.196;2023-04-30T13:13:29;3.03;;;1.42;;
20734;SDS011;10528;52.124;5.196;2023-04-30T13:15:56;1.85;;;0.98;;
20734;SDS011;10528;52.124;5.196;2023-04-30T13:18:23;2.42;;;0.98;;
20734;SDS011;10528;52.124;5.196;2023-04-30T13:20:50;2.35;;;0.80;;
20734;SDS011;10528;52.124;5.196;2023-04-30T13:23:17;2.20;;;1.00;;
20734;SDS011;10528;52.124;5.196;2023-04-30T13:25:44;1.52;;;0.90;;
20734;SDS011;10528;52.124;5.196;2023-04-30T13:28:11;2.05;;;0.90;;
20734;SDS011;10528;52.124;5.196;2023-04-30T13:30:38;2.10;;;1.10;;
20734;SDS011;10528;52.124;5.196;2023-04-30T13:33:06;3.35;;;1.42;;
20734;SDS011;10528;52.124;5.196;2023-04-30T13:35:33;1.92;;;0.85;;
20734;SDS011;10528;52.124;5.196;2023-04-30T13:38:00;2.70;;;1.00;;
20734;SDS011;10528;52.124;5.196;2023-04-30T13:40:27;1.88;;;0.75;;
20734;SDS011;10528;52.124;5.196;2023-04-30T13:42:54;1.65;;;0.90;;
20734;SDS011;10528;52.124;5.196;2023-04-30T13:45:21;1.58;;;0.80;;
20734;SDS011;10528;52.124;5.196;2023-04-30T13:47:48;1.20;;;0.70;;
20734;SDS011;10528;52.124;5.196;2023-04-30T13:50:15;2.25;;;0.98;;
20734;SDS011;10528;52.124;5.196;2023-04-30T13:52:41;2.55;;;1.42;;
20734;SDS011;10528;52.124;5.196;2023-04-30T13:55:08;1.95;;;1.10;;
20734;SDS011;10528;52.124;5.196;2023-04-30T13:57:35;1.55;;;0.98;;
20734;SDS011;10528;52.124;5.196;2023-04-30T14:00:02;1.50;;;0.75;;
20734;SDS011;10528;52.124;5.196;2023-04-30T14:02:33;1.58;;;0.93;;
20734;SDS011;10528;52.124;5.196;2023-04-30T14:05:00;1.60;;;0.88;;
20734;SDS011;10528;52.124;5.196;2023-04-30T14:07:32;1.63;;;0.80;;
20734;SDS011;10528;52.124;5.196;2023-04-30T14:09:59;0.60;;;0.60;;
20734;SDS011;10528;52.124;5.196;2023-04-30T14:12:26;1.67;;;0.88;;
20734;SDS011;10528;52.124;5.196;2023-04-30T14:14:55;1.25;;;0.70;;
20734;SDS011;10528;52.124;5.196;2023-04-30T14:17:23;2.80;;;0.93;;
20734;SDS011;10528;52.124;5.196;2023-04-30T14:19:52;2.10;;;0.90;;
20734;SDS011;10528;52.124;5.196;2023-04-30T14:22:19;0.80;;;0.60;;
20734;SDS011;10528;52.124;5.196;2023-04-30T14:24:46;1.42;;;0.73;;
20734;SDS011;10528;52.124;5.196;2023-04-30T14:27:13;1.52;;;0.80;;
20734;SDS011;10528;52.124;5.196;2023-04-30T14:29:40;2.45;;;0.77;;
20734;SDS011;10528;52.124;5.196;2023-04-30T14:32:07;1.27;;;0.80;;
20734;SDS011;10528;52.124;5.196;2023-04-30T14:34:34;2.55;;;1.00;;
20734;SDS011;10528;52.124;5.196;2023-04-30T14:37:02;2.45;;;0.68;;
20734;SDS011;10528;52.124;5.196;2023-04-30T14:39:29;2.45;;;0.60;;
20734;SDS011;10528;52.124;5.196;2023-04-30T14:41:56;0.80;;;0.50;;
20734;SDS011;10528;52.124;5.196;2023-04-30T14:44:23;0.95;;;0.68;;
20734;SDS011;10528;52.124;5.196;2023-04-30T14:46:51;2.67;;;0.90;;
20734;SDS011;10528;52.124;5.196;2023-04-30T14:49:18;1.60;;;1.00;;
20734;SDS011;10528;52.124;5.196;2023-04-30T14:51:45;1.42;;;0.75;;
20734;SDS011;10528;52.124;5.196;2023-04-30T14:54:12;1.42;;;0.75;;
20734;SDS011;10528;52.124;5.196;2023-04-30T14:56:40;1.45;;;0.80;;
20734;SDS011;10528;52.124;5.196;2023-04-30T14:59:07;0.90;;;0.70;;
20734;SDS011;10528;52.124;5.196;2023-04-30T15:01:33;0.80;;;0.60;;
20734;SDS011;10528;52.124;5.196;2023-04-30T15:04:00;3.00;;;0.85;;
20734;SDS011;10528;52.124;5.196;2023-04-30T15:06:27;1.80;;;0.70;;
20734;SDS011;10528;52.124;5.196;2023-04-30T15:08:54;1.45;;;0.75;;
20734;SDS011;10528;52.124;5.196;2023-04-30T15:11:21;1.63;;;0.80;;
20734;SDS011;10528;52.124;5.196;2023-04-30T15:13:49;2.03;;;0.80;;
20734;SDS011;10528;52.124;5.196;2023-04-30T15:16:16;3.28;;;1.10;;
20734;SDS011;10528;52.124;5.196;2023-04-30T15:18:43;1.65;;;0.82;;